sensor_id;sensor_type;location;lat;lon;timestamp;pressure;altitude;pressure_sealevel;temperature;humidity
24486;BME280;13449;49.374;8.584;2022-09-09T00:02:00;100108.91;;;15.26;100.00
24486;BME280;13449;49.374;8.584;2022-09-09T00:04:34;100109.63;;;15.22;100.00
24486;BME280;13449;49.374;8.584;2022-09-09T00:07:03;100106.25;;;15.20;100.00
24486;BME280;13449;49.374;8.584;2022-09-09T00:10:22;100107.53;;;15.17;100.00
24486;BME280;13449;49.374;8.584;2022-09-09T00:15:14;100108.53;;;15.23;100.00
24486;BME280;13449;49.374;8.584;2022-09-09T00:17:47;100111.84;;;15.31;100.00
24486;BME280;13449;49.374;8.584;2022-09-09T00:25:34;100101.03;;;15.36;100.00
24486;BME280;13449;49.374;8.584;2022-09-09T00:28:18;100104.53;;;15.43;100.00
24486;BME280;13449;49.374;8.584;2022-09-09T00:30:47;100095.25;;;15.44;100.00
24486;BME280;13449;49.374;8.584;2022-09-09T00:33:17;100101.94;;;15.48;100.00
24486;BME280;13449;49.374;8.584;2022-09-09T00:35:48;100098.09;;;15.56;100.00
24486;BME280;13449;49.374;8.584;2022-09-09T00:38:21;100095.97;;;15.58;100.00
24486;BME280;13449;49.374;8.584;2022-09-09T00:40:52;100097.88;;;15.58;100.00
24486;BME280;13449;49.374;8.584;2022-09-09T00:48:32;100097.56;;;15.66;100.00
24486;BME280;13449;49.374;8.584;2022-09-09T00:51:16;100099.84;;;15.69;100.00
24486;BME280;13449;49.374;8.584;2022-09-09T00:56:47;100101.47;;;15.76;100.00
24486;BME280;13449;49.374;8.584;2022-09-09T00:59:40;100108.41;;;15.79;100.00
24486;BME280;13449;49.374;8.584;2022-09-09T01:02:32;100107.56;;;15.78;100.00
24486;BME280;13449;49.374;8.584;2022-09-09T01:05:07;100101.84;;;15.80;100.00
24486;BME280;13449;49.374;8.584;2022-09-09T01:07:38;100108.41;;;15.79;100.00
24486;BME280;13449;49.374;8.584;2022-09-09T01:10:27;100109.25;;;15.79;100.00
24486;BME280;13449;49.374;8.584;2022-09-09T01:13:02;100110.72;;;15.82;100.00
24486;BME280;13449;49.374;8.584;2022-09-09T01:15:32;100104.13;;;15.83;100.00
24486;BME280;13449;49.374;8.584;2022-09-09T01:18:06;100100.53;;;15.82;100.00
24486;BME280;13449;49.374;8.584;2022-09-09T01:20:51;100103.06;;;15.84;100.00
24486;BME280;13449;49.374;8.584;2022-09-09T01:26:15;100111.22;;;15.90;99.47
24486;BME280;13449;49.374;8.584;2022-09-09T01:28:46;100114.81;;;15.91;99.61
24486;BME280;13449;49.374;8.584;2022-09-09T01:31:18;100109.94;;;15.93;99.81
24486;BME280;13449;49.374;8.584;2022-09-09T01:33:48;100108.00;;;15.93;99.55
24486;BME280;13449;49.374;8.584;2022-09-09T01:36:24;100112.69;;;15.93;99.86
24486;BME280;13449;49.374;8.584;2022-09-09T01:38:53;100108.84;;;15.94;99.94
24486;BME280;13449;49.374;8.584;2022-09-09T01:41:20;100117.47;;;15.98;100.00
24486;BME280;13449;49.374;8.584;2022-09-09T01:43:47;100112.81;;;15.98;100.00
24486;BME280;13449;49.374;8.584;2022-09-09T01:46:14;100108.41;;;15.97;100.00
24486;BME280;13449;49.374;8.584;2022-09-09T01:48:41;100112.63;;;16.00;100.00
24486;BME280;13449;49.374;8.584;2022-09-09T01:51:09;100112.81;;;15.98;100.00
24486;BME280;13449;49.374;8.584;2022-09-09T01:53:38;100120.84;;;16.00;100.00
24486;BME280;13449;49.374;8.584;2022-09-09T01:58:51;100110.00;;;16.05;100.00
24486;BME280;13449;49.374;8.584;2022-09-09T02:04:44;100117.84;;;16.01;100.00
24486;BME280;13449;49.374;8.584;2022-09-09T02:09:51;100111.94;;;16.04;100.00
24486;BME280;13449;49.374;8.584;2022-09-09T02:12:26;100104.75;;;16.03;100.00
24486;BME280;13449;49.374;8.584;2022-09-09T02:15:03;100115.75;;;16.03;100.00
24486;BME280;13449;49.374;8.584;2022-09-09T02:17:34;100117.06;;;16.01;100.00
24486;BME280;13449;49.374;8.584;2022-09-09T02:20:11;100119.81;;;16.01;100.00
24486;BME280;13449;49.374;8.584;2022-09-09T02:22:41;100120.47;;;15.96;100.00
24486;BME280;13449;49.374;8.584;2022-09-09T02:25:13;100120.69;;;15.94;100.00
24486;BME280;13449;49.374;8.584;2022-09-09T02:27:43;100113.75;;;15.92;100.00
24486;BME280;13449;49.374;8.584;2022-09-09T02:30:12;100119.25;;;15.92;100.00
24486;BME280;13449;49.374;8.584;2022-09-09T02:32:40;100117.19;;;15.87;100.00
24486;BME280;13449;49.374;8.584;2022-09-09T02:35:12;100112.38;;;15.83;100.00
24486;BME280;13449;49.374;8.584;2022-09-09T02:37:42;100119.41;;;15.79;100.00
24486;BME280;13449;49.374;8.584;2022-09-09T02:40:11;100111.41;;;15.77;100.00
24486;BME280;13449;49.374;8.584;2022-09-09T02:42:57;100117.13;;;15.76;100.00
24486;BME280;13449;49.374;8.584;2022-09-09T02:45:26;100131.09;;;15.74;100.00
24486;BME280;13449;49.374;8.584;2022-09-09T02:50:56;100119.09;;;15.69;100.00
24486;BME280;13449;49.374;8.584;2022-09-09T02:53:31;100116.81;;;15.66;100.00
24486;BME280;13449;49.374;8.584;2022-09-09T02:56:15;100118.53;;;15.60;100.00
24486;BME280;13449;49.374;8.584;2022-09-09T02:58:42;100115.41;;;15.57;100.00
24486;BME280;13449;49.374;8.584;2022-09-09T03:01:14;100104.03;;;15.53;100.00
24486;BME280;13449;49.374;8.584;2022-09-09T03:03:41;100101.16;;;15.41;100.00
24486;BME280;13449;49.374;8.584;2022-09-09T03:06:08;100105.38;;;15.44;100.00
24486;BME280;13449;49.374;8.584;2022-09-09T03:08:36;100113.91;;;15.36;100.00
24486;BME280;13449;49.374;8.584;2022-09-09T03:11:03;100108.25;;;15.31;100.00
24486;BME280;13449;49.374;8.584;2022-09-09T03:13:29;100110.00;;;15.25;100.00
24486;BME280;13449;49.374;8.584;2022-09-09T03:15:58;100105.00;;;15.16;100.00
24486;BME280;13449;49.374;8.584;2022-09-09T03:18:25;100106.75;;;15.10;100.00
24486;BME280;13449;49.374;8.584;2022-09-09T03:20:52;100104.28;;;15.02;100.00
24486;BME280;13449;49.374;8.584;2022-09-09T03:23:20;100103.63;;;15.07;100.00
24486;BME280;13449;49.374;8.584;2022-09-09T03:25:48;100099.03;;;15.00;100.00
24486;BME280;13449;49.374;8.584;2022-09-09T03:28:15;100104.13;;;14.97;100.00
24486;BME280;13449;49.374;8.584;2022-09-09T03:30:42;100106.25;;;14.95;100.00
24486;BME280;13449;49.374;8.584;2022-09-09T03:33:08;100113.88;;;14.93;100.00
24486;BME280;13449;49.374;8.584;2022-09-09T03:35:37;100111.97;;;14.93;100.00
24486;BME280;13449;49.374;8.584;2022-09-09T03:38:04;100111.34;;;14.91;100.00
24486;BME280;13449;49.374;8.584;2022-09-09T03:40:30;100103.53;;;14.88;100.00
24486;BME280;13449;49.374;8.584;2022-09-09T03:42:57;100108.22;;;14.88;100.00
24486;BME280;13449;49.374;8.584;2022-09-09T03:45:23;100104.84;;;14.86;100.00
24486;BME280;13449;49.374;8.584;2022-09-09T03:47:50;100101.03;;;14.87;100.00
24486;BME280;13449;49.374;8.584;2022-09-09T03:50:16;100113.03;;;14.92;100.00
24486;BME280;13449;49.374;8.584;2022-09-09T03:52:47;100104.34;;;14.95;100.00
24486;BME280;13449;49.374;8.584;2022-09-09T03:55:14;100109.16;;;15.00;100.00
24486;BME280;13449;49.374;8.584;2022-09-09T03:57:43;100110.84;;;15.01;100.00
24486;BME280;13449;49.374;8.584;2022-09-09T04:00:15;100119.88;;;15.08;100.00
24486;BME280;13449;49.374;8.584;2022-09-09T04:02:41;100115.22;;;15.09;100.00
24486;BME280;13449;49.374;8.584;2022-09-09T04:05:09;100116.84;;;15.16;100.00
24486;BME280;13449;49.374;8.584;2022-09-09T04:07:41;100118.91;;;15.21;100.00
24486;BME280;13449;49.374;8.584;2022-09-09T04:10:07;100119.53;;;15.23;100.00
24486;BME280;13449;49.374;8.584;2022-09-09T04:12:36;100112.50;;;15.27;100.00
24486;BME280;13449;49.374;8.584;2022-09-09T04:15:06;100114.38;;;15.33;100.00
24486;BME280;13449;49.374;8.584;2022-09-09T04:17:32;100125.50;;;15.38;100.00
24486;BME280;13449;49.374;8.584;2022-09-09T04:19:59;100118.94;;;15.39;100.00
24486;BME280;13449;49.374;8.584;2022-09-09T04:22:27;100121.03;;;15.43;100.00
24486;BME280;13449;49.374;8.584;2022-09-09T04:24:53;100126.91;;;15.47;100.00
24486;BME280;13449;49.374;8.584;2022-09-09T04:27:20;100125.63;;;15.50;100.00
24486;BME280;13449;49.374;8.584;2022-09-09T04:29:46;100133.22;;;15.54;100.00
24486;BME280;13449;49.374;8.584;2022-09-09T04:32:15;100133.00;;;15.56;100.00
24486;BME280;13449;49.374;8.584;2022-09-09T04:34:41;100134.06;;;15.55;100.00
24486;BME280;13449;49.374;8.584;2022-09-09T04:37:11;100126.41;;;15.57;100.00
24486;BME280;13449;49.374;8.584;2022-09-09T04:39:37;100126.41;;;15.57;100.00
24486;BME280;13449;49.374;8.584;2022-09-09T04:42:04;100131.31;;;15.55;100.00
24486;BME280;13449;49.374;8.584;2022-09-09T04:44:30;100128.56;;;15.55;100.00
24486;BME280;13449;49.374;8.584;2022-09-09T04:46:56;100138.72;;;15.54;100.00
24486;BME280;13449;49.374;8.584;2022-09-09T04:49:23;100141.25;;;15.56;100.00
24486;BME280;13449;49.374;8.584;2022-09-09T04:51:52;100137.03;;;15.53;100.00
24486;BME280;13449;49.374;8.584;2022-09-09T04:54:19;100145.88;;;15.55;100.00
24486;BME280;13449;49.374;8.584;2022-09-09T04:56:45;100137.41;;;15.57;100.00
24486;BME280;13449;49.374;8.584;2022-09-09T04:59:12;100145.81;;;15.62;100.00
24486;BME280;13449;49.374;8.584;2022-09-09T05:01:38;100146.03;;;15.60;100.00
24486;BME280;13449;49.374;8.584;2022-09-09T05:04:07;100143.28;;;15.60;100.00
24486;BME280;13449;49.374;8.584;2022-09-09T05:06:37;100152.75;;;15.64;100.00
24486;BME280;13449;49.374;8.584;2022-09-09T05:09:03;100147.03;;;15.66;100.00
24486;BME280;13449;49.374;8.584;2022-09-09T05:11:32;100151.03;;;15.70;100.00
24486;BME280;13449;49.374;8.584;2022-09-09T05:14:02;100146.13;;;15.72;100.00
24486;BME280;13449;49.374;8.584;2022-09-09T05:16:29;100155.00;;;15.74;99.73
24486;BME280;13449;49.374;8.584;2022-09-09T05:18:56;100151.16;;;15.75;99.83
24486;BME280;13449;49.374;8.584;2022-09-09T05:21:24;100149.63;;;15.79;100.00
24486;BME280;13449;49.374;8.584;2022-09-09T05:23:56;100157.47;;;15.82;98.85
24486;BME280;13449;49.374;8.584;2022-09-09T05:26:23;100159.75;;;15.85;98.99
24486;BME280;13449;49.374;8.584;2022-09-09T05:28:50;100160.59;;;15.85;99.49
24486;BME280;13449;49.374;8.584;2022-09-09T05:31:19;100160.72;;;15.90;99.12
24486;BME280;13449;49.374;8.584;2022-09-09T05:33:47;100167.44;;;15.94;99.55
24486;BME280;13449;49.374;8.584;2022-09-09T05:36:18;100173.31;;;15.98;98.67
24486;BME280;13449;49.374;8.584;2022-09-09T05:38:50;100176.72;;;16.00;98.40
24486;BME280;13449;49.374;8.584;2022-09-09T05:41:17;100177.31;;;16.02;97.40
24486;BME280;13449;49.374;8.584;2022-09-09T05:43:44;100175.09;;;16.11;97.55
24486;BME280;13449;49.374;8.584;2022-09-09T05:48:41;100178.69;;;16.29;96.31
24486;BME280;13449;49.374;8.584;2022-09-09T05:51:14;100174.78;;;16.37;97.98
24486;BME280;13449;49.374;8.584;2022-09-09T05:53:45;100177.91;;;16.40;97.95
24486;BME280;13449;49.374;8.584;2022-09-09T05:56:17;100173.25;;;16.41;98.55
24486;BME280;13449;49.374;8.584;2022-09-09T05:58:44;100184.25;;;16.41;98.54
24486;BME280;13449;49.374;8.584;2022-09-09T06:03:41;100189.66;;;16.48;97.50
24486;BME280;13449;49.374;8.584;2022-09-09T06:06:10;100180.34;;;16.49;96.98
24486;BME280;13449;49.374;8.584;2022-09-09T06:08:39;100182.94;;;16.43;96.47
24486;BME280;13449;49.374;8.584;2022-09-09T06:11:08;100182.94;;;16.43;96.51
24486;BME280;13449;49.374;8.584;2022-09-09T06:13:35;100186.75;;;16.42;95.29
24486;BME280;13449;49.374;8.584;2022-09-09T06:16:06;100176.47;;;16.56;94.36
24486;BME280;13449;49.374;8.584;2022-09-09T06:18:37;100174.72;;;16.73;94.96
24486;BME280;13449;49.374;8.584;2022-09-09T06:21:06;100172.38;;;16.88;94.63
24486;BME280;13449;49.374;8.584;2022-09-09T06:23:33;100189.22;;;17.10;92.02
24486;BME280;13449;49.374;8.584;2022-09-09T06:26:04;100183.50;;;17.23;91.52
24486;BME280;13449;49.374;8.584;2022-09-09T06:28:35;100174.28;;;17.29;92.58
24486;BME280;13449;49.374;8.584;2022-09-09T06:31:08;100176.19;;;17.29;89.87
24486;BME280;13449;49.374;8.584;2022-09-09T06:33:37;100171.88;;;17.33;90.39
24486;BME280;13449;49.374;8.584;2022-09-09T06:36:12;100179.94;;;17.34;89.44
24486;BME280;13449;49.374;8.584;2022-09-09T06:38:38;100184.97;;;17.37;89.91
24486;BME280;13449;49.374;8.584;2022-09-09T06:41:05;100190.00;;;17.40;88.50
24486;BME280;13449;49.374;8.584;2022-09-09T06:43:34;100188.56;;;17.50;88.05
24486;BME280;13449;49.374;8.584;2022-09-09T06:46:15;100191.47;;;17.66;88.34
24486;BME280;13449;49.374;8.584;2022-09-09T06:48:43;100191.13;;;17.86;86.84
24486;BME280;13449;49.374;8.584;2022-09-09T06:53:41;100187.72;;;18.07;87.81
24486;BME280;13449;49.374;8.584;2022-09-09T06:58:43;100194.00;;;18.03;86.25
24486;BME280;13449;49.374;8.584;2022-09-09T07:01:13;100197.34;;;18.05;85.26
24486;BME280;13449;49.374;8.584;2022-09-09T07:03:45;100202.28;;;18.03;84.58
24486;BME280;13449;49.374;8.584;2022-09-09T07:06:15;100205.13;;;17.96;85.83
24486;BME280;13449;49.374;8.584;2022-09-09T07:08:43;100206.97;;;17.91;85.27
24486;BME280;13449;49.374;8.584;2022-09-09T07:11:23;100210.06;;;17.94;86.32
24486;BME280;13449;49.374;8.584;2022-09-09T07:13:49;100212.69;;;18.01;86.31
24486;BME280;13449;49.374;8.584;2022-09-09T07:16:18;100214.34;;;18.37;83.99
24486;BME280;13449;49.374;8.584;2022-09-09T07:18:44;100207.88;;;18.71;83.16
24486;BME280;13449;49.374;8.584;2022-09-09T07:21:14;100201.31;;;19.17;82.55
24486;BME280;13449;49.374;8.584;2022-09-09T07:23:41;100206.38;;;19.53;80.36
24486;BME280;13449;49.374;8.584;2022-09-09T07:26:13;100197.19;;;19.64;80.23
24486;BME280;13449;49.374;8.584;2022-09-09T07:28:41;100194.72;;;19.85;78.34
24486;BME280;13449;49.374;8.584;2022-09-09T07:33:45;100207.31;;;20.14;75.35
24486;BME280;13449;49.374;8.584;2022-09-09T07:36:17;100203.66;;;20.08;77.77
24486;BME280;13449;49.374;8.584;2022-09-09T07:38:45;100204.22;;;20.10;76.22
24486;BME280;13449;49.374;8.584;2022-09-09T07:41:18;100218.84;;;20.06;73.50
24486;BME280;13449;49.374;8.584;2022-09-09T07:43:45;100212.16;;;20.02;75.84
24486;BME280;13449;49.374;8.584;2022-09-09T07:46:15;100211.66;;;19.88;74.80
24486;BME280;13449;49.374;8.584;2022-09-09T07:48:46;100219.09;;;20.04;74.74
24486;BME280;13449;49.374;8.584;2022-09-09T07:51:23;100202.94;;;19.79;75.64
24486;BME280;13449;49.374;8.584;2022-09-09T07:53:53;100207.75;;;19.67;76.90
24486;BME280;13449;49.374;8.584;2022-09-09T07:56:20;100205.22;;;19.66;77.79
24486;BME280;13449;49.374;8.584;2022-09-09T07:58:51;100207.72;;;19.84;76.62
24486;BME280;13449;49.374;8.584;2022-09-09T08:01:38;100221.22;;;19.81;74.09
24486;BME280;13449;49.374;8.584;2022-09-09T08:04:08;100212.91;;;19.81;73.78
24486;BME280;13449;49.374;8.584;2022-09-09T08:06:38;100209.53;;;19.95;75.97
24486;BME280;13449;49.374;8.584;2022-09-09T08:09:05;100226.97;;;20.12;72.46
24486;BME280;13449;49.374;8.584;2022-09-09T08:11:32;100228.72;;;20.18;72.18
24486;BME280;13449;49.374;8.584;2022-09-09T08:14:05;100223.19;;;20.18;72.99
24486;BME280;13449;49.374;8.584;2022-09-09T08:16:34;100233.22;;;20.24;72.86
24486;BME280;13449;49.374;8.584;2022-09-09T08:19:07;100238.00;;;20.67;72.03
24486;BME280;13449;49.374;8.584;2022-09-09T08:21:35;100224.94;;;21.38;74.08
24486;BME280;13449;49.374;8.584;2022-09-09T08:24:03;100230.38;;;21.55;72.05
24486;BME280;13449;49.374;8.584;2022-09-09T08:26:38;100251.53;;;21.34;69.80
24486;BME280;13449;49.374;8.584;2022-09-09T08:29:07;100252.75;;;20.95;69.46
24486;BME280;13449;49.374;8.584;2022-09-09T08:31:37;100239.16;;;20.50;70.64
24486;BME280;13449;49.374;8.584;2022-09-09T08:37:12;100234.97;;;19.92;72.71
24486;BME280;13449;49.374;8.584;2022-09-09T08:39:38;100245.72;;;19.72;71.75
24486;BME280;13449;49.374;8.584;2022-09-09T08:55:44;100255.06;;;20.38;71.00
24486;BME280;13449;49.374;8.584;2022-09-09T08:58:16;100230.13;;;20.81;74.02
24486;BME280;13449;49.374;8.584;2022-09-09T09:03:59;100240.88;;;21.21;72.46
24486;BME280;13449;49.374;8.584;2022-09-09T09:11:40;100254.06;;;21.41;71.00
24486;BME280;13449;49.374;8.584;2022-09-09T09:14:16;100244.44;;;21.48;70.10
24486;BME280;13449;49.374;8.584;2022-09-09T09:16:58;100246.34;;;21.16;69.13
24486;BME280;13449;49.374;8.584;2022-09-09T09:19:26;100238.75;;;21.06;70.14
24486;BME280;13449;49.374;8.584;2022-09-09T09:24:35;100242.34;;;21.34;70.82
24486;BME280;13449;49.374;8.584;2022-09-09T09:29:58;100249.22;;;21.53;68.65
24486;BME280;13449;49.374;8.584;2022-09-09T09:35:58;100248.53;;;21.99;66.69
24486;BME280;13449;49.374;8.584;2022-09-09T09:38:27;100233.34;;;22.17;67.37
24486;BME280;13449;49.374;8.584;2022-09-09T09:41:14;100242.41;;;22.44;65.63
24486;BME280;13449;49.374;8.584;2022-09-09T09:43:53;100274.13;;;23.10;63.60
24486;BME280;13449;49.374;8.584;2022-09-09T09:46:24;100275.03;;;23.31;62.26
24486;BME280;13449;49.374;8.584;2022-09-09T09:49:25;100286.44;;;23.30;61.17
24486;BME280;13449;49.374;8.584;2022-09-09T09:51:44;100264.25;;;22.73;62.56
24486;BME280;13449;49.374;8.584;2022-09-09T09:56:44;100254.88;;;21.95;64.05
24486;BME280;13449;49.374;8.584;2022-09-09T10:02:24;100230.19;;;20.86;74.06
24486;BME280;13449;49.374;8.584;2022-09-09T10:05:05;100250.81;;;20.73;75.60
24486;BME280;13449;49.374;8.584;2022-09-09T10:07:32;100257.78;;;20.54;75.66
24486;BME280;13449;49.374;8.584;2022-09-09T10:09:59;100254.66;;;20.51;77.53
24486;BME280;13449;49.374;8.584;2022-09-09T10:23:33;100257.72;;;21.73;69.14
24486;BME280;13449;49.374;8.584;2022-09-09T10:32:12;100260.72;;;21.98;64.90
24486;BME280;13449;49.374;8.584;2022-09-09T10:34:58;100247.00;;;22.19;64.85
24486;BME280;13449;49.374;8.584;2022-09-09T10:42:41;100244.94;;;22.51;64.08
24486;BME280;13449;49.374;8.584;2022-09-09T10:45:17;100269.59;;;22.37;59.48
24486;BME280;13449;49.374;8.584;2022-09-09T10:56:20;100262.38;;;22.88;59.35
24486;BME280;13449;49.374;8.584;2022-09-09T10:59:04;100259.03;;;22.86;58.24
24486;BME280;13449;49.374;8.584;2022-09-09T11:01:52;100244.91;;;23.03;59.80
24486;BME280;13449;49.374;8.584;2022-09-09T11:04:40;100246.03;;;23.07;58.40
24486;BME280;13449;49.374;8.584;2022-09-09T11:07:21;100242.69;;;23.10;59.23
24486;BME280;13449;49.374;8.584;2022-09-09T11:09:55;100265.19;;;22.98;56.57
24486;BME280;13449;49.374;8.584;2022-09-09T11:12:27;100241.34;;;23.23;58.96
24486;BME280;13449;49.374;8.584;2022-09-09T11:14:59;100252.56;;;23.43;57.53
24486;BME280;13449;49.374;8.584;2022-09-09T11:17:46;100258.66;;;23.55;56.90
24486;BME280;13449;49.374;8.584;2022-09-09T11:20:15;100253.03;;;23.40;57.56
24486;BME280;13449;49.374;8.584;2022-09-09T11:25:16;100253.63;;;23.32;57.24
24486;BME280;13449;49.374;8.584;2022-09-09T11:33:33;100262.03;;;23.57;55.45
24486;BME280;13449;49.374;8.584;2022-09-09T11:36:22;100264.56;;;23.84;55.48
24486;BME280;13449;49.374;8.584;2022-09-09T11:41:37;100266.22;;;24.15;54.66
24486;BME280;13449;49.374;8.584;2022-09-09T11:44:11;100292.13;;;24.36;51.88
24486;BME280;13449;49.374;8.584;2022-09-09T11:46:39;100280.38;;;24.34;52.40
24486;BME280;13449;49.374;8.584;2022-09-09T11:49:29;100274.47;;;24.61;52.15
24486;BME280;13449;49.374;8.584;2022-09-09T11:51:59;100247.91;;;24.78;53.90
24486;BME280;13449;49.374;8.584;2022-09-09T11:54:33;100293.72;;;24.62;51.28
24486;BME280;13449;49.374;8.584;2022-09-09T11:57:24;100284.25;;;24.58;52.06
24486;BME280;13449;49.374;8.584;2022-09-09T11:59:52;100288.44;;;24.56;50.58
24486;BME280;13449;49.374;8.584;2022-09-09T12:02:24;100279.75;;;24.67;50.84
24486;BME280;13449;49.374;8.584;2022-09-09T12:05:10;100279.56;;;24.38;50.90
24486;BME280;13449;49.374;8.584;2022-09-09T12:07:39;100273.72;;;24.40;51.02
24486;BME280;13449;49.374;8.584;2022-09-09T12:10:26;100261.22;;;24.17;52.87
24486;BME280;13449;49.374;8.584;2022-09-09T12:12:53;100242.25;;;23.64;53.45
24486;BME280;13449;49.374;8.584;2022-09-09T12:15:23;100224.09;;;23.26;55.64
24486;BME280;13449;49.374;8.584;2022-09-09T12:17:56;100231.25;;;22.96;54.41
24486;BME280;13449;49.374;8.584;2022-09-09T12:23:59;100222.94;;;23.06;55.80
24486;BME280;13449;49.374;8.584;2022-09-09T12:32:00;100225.00;;;23.46;55.33
24486;BME280;13449;49.374;8.584;2022-09-09T12:34:56;100234.72;;;23.74;54.63
24486;BME280;13449;49.374;8.584;2022-09-09T12:37:50;100260.94;;;23.83;51.70
24486;BME280;13449;49.374;8.584;2022-09-09T12:40:26;100235.56;;;23.75;53.79
24486;BME280;13449;49.374;8.584;2022-09-09T12:42:54;100252.84;;;23.92;52.25
24486;BME280;13449;49.374;8.584;2022-09-09T12:45:26;100213.56;;;23.63;54.16
24486;BME280;13449;49.374;8.584;2022-09-09T12:48:06;100223.88;;;23.98;53.93
24486;BME280;13449;49.374;8.584;2022-09-09T12:50:51;100205.72;;;24.26;54.82
24486;BME280;13449;49.374;8.584;2022-09-09T12:53:25;100218.53;;;24.32;53.68
24486;BME280;13449;49.374;8.584;2022-09-09T12:55:57;100221.91;;;24.19;53.31
24486;BME280;13449;49.374;8.584;2022-09-09T12:58:24;100234.19;;;24.18;52.28
24486;BME280;13449;49.374;8.584;2022-09-09T13:00:55;100256.44;;;23.92;51.85
24486;BME280;13449;49.374;8.584;2022-09-09T13:03:23;100228.63;;;23.87;52.88
24486;BME280;13449;49.374;8.584;2022-09-09T13:05:52;100223.88;;;23.68;53.53
24486;BME280;13449;49.374;8.584;2022-09-09T13:08:20;100207.34;;;23.00;54.33
24486;BME280;13449;49.374;8.584;2022-09-09T13:10:50;100178.06;;;22.68;57.24
24486;BME280;13449;49.374;8.584;2022-09-09T13:13:38;100177.03;;;22.32;57.91
24486;BME280;13449;49.374;8.584;2022-09-09T13:16:07;100164.78;;;22.23;60.09
24486;BME280;13449;49.374;8.584;2022-09-09T13:18:44;100199.06;;;21.96;58.07
24486;BME280;13449;49.374;8.584;2022-09-09T13:21:11;100200.34;;;21.84;58.99
24486;BME280;13449;49.374;8.584;2022-09-09T13:23:38;100194.59;;;21.27;59.83
24486;BME280;13449;49.374;8.584;2022-09-09T13:26:25;100175.75;;;21.02;63.38
24486;BME280;13449;49.374;8.584;2022-09-09T13:28:53;100210.63;;;20.49;61.55
24486;BME280;13449;49.374;8.584;2022-09-09T13:31:28;100173.97;;;20.04;66.22
24486;BME280;13449;49.374;8.584;2022-09-09T13:33:55;100185.25;;;19.30;71.61
24486;BME280;13449;49.374;8.584;2022-09-09T13:36:32;100186.94;;;18.87;77.01
24486;BME280;13449;49.374;8.584;2022-09-09T13:39:03;100186.72;;;18.48;82.47
24486;BME280;13449;49.374;8.584;2022-09-09T13:41:35;100180.28;;;18.19;83.47
24486;BME280;13449;49.374;8.584;2022-09-09T13:44:03;100184.94;;;18.30;89.12
24486;BME280;13449;49.374;8.584;2022-09-09T13:46:41;100173.28;;;18.40;89.18
24486;BME280;13449;49.374;8.584;2022-09-09T13:51:39;100173.13;;;18.47;90.97
24486;BME280;13449;49.374;8.584;2022-09-09T13:54:09;100176.91;;;18.69;88.16
24486;BME280;13449;49.374;8.584;2022-09-09T13:56:37;100171.75;;;18.72;88.11
24486;BME280;13449;49.374;8.584;2022-09-09T13:59:08;100170.56;;;18.68;87.94
24486;BME280;13449;49.374;8.584;2022-09-09T14:01:35;100168.19;;;19.05;90.69
24486;BME280;13449;49.374;8.584;2022-09-09T14:04:03;100173.44;;;19.18;86.90
24486;BME280;13449;49.374;8.584;2022-09-09T14:06:34;100166.47;;;19.33;85.65
24486;BME280;13449;49.374;8.584;2022-09-09T14:09:07;100162.13;;;19.37;81.04
24486;BME280;13449;49.374;8.584;2022-09-09T14:11:38;100160.06;;;19.44;80.53
24486;BME280;13449;49.374;8.584;2022-09-09T14:14:09;100154.34;;;19.50;81.04
24486;BME280;13449;49.374;8.584;2022-09-09T14:16:36;100148.47;;;19.47;78.96
24486;BME280;13449;49.374;8.584;2022-09-09T14:19:04;100153.81;;;19.37;76.62
24486;BME280;13449;49.374;8.584;2022-09-09T14:21:30;100134.97;;;19.50;78.83
24486;BME280;13449;49.374;8.584;2022-09-09T14:23:56;100131.38;;;19.66;76.41
24486;BME280;13449;49.374;8.584;2022-09-09T14:26:24;100139.13;;;19.86;75.56
24486;BME280;13449;49.374;8.584;2022-09-09T14:28:51;100116.59;;;19.77;76.11
24486;BME280;13449;49.374;8.584;2022-09-09T14:31:23;100120.59;;;19.87;74.87
24486;BME280;13449;49.374;8.584;2022-09-09T14:33:49;100131.22;;;19.95;71.94
24486;BME280;13449;49.374;8.584;2022-09-09T14:36:17;100146.47;;;19.97;70.28
24486;BME280;13449;49.374;8.584;2022-09-09T14:38:43;100154.03;;;20.02;70.63
24486;BME280;13449;49.374;8.584;2022-09-09T14:41:17;100141.06;;;20.07;72.20
24486;BME280;13449;49.374;8.584;2022-09-09T14:43:46;100153.31;;;20.11;71.35
24486;BME280;13449;49.374;8.584;2022-09-09T14:46:17;100138.91;;;20.09;72.09
24486;BME280;13449;49.374;8.584;2022-09-09T14:48:45;100160.88;;;19.99;70.17
24486;BME280;13449;49.374;8.584;2022-09-09T14:53:42;100154.38;;;19.89;71.69
24486;BME280;13449;49.374;8.584;2022-09-09T14:56:10;100160.34;;;19.81;72.70
24486;BME280;13449;49.374;8.584;2022-09-09T14:58:37;100168.91;;;19.79;72.31
24486;BME280;13449;49.374;8.584;2022-09-09T15:01:09;100169.72;;;19.79;72.55
24486;BME280;13449;49.374;8.584;2022-09-09T15:03:37;100175.53;;;19.78;72.23
24486;BME280;13449;49.374;8.584;2022-09-09T15:06:08;100168.59;;;19.75;72.83
24486;BME280;13449;49.374;8.584;2022-09-09T15:08:36;100159.69;;;19.73;73.03
24486;BME280;13449;49.374;8.584;2022-09-09T15:11:08;100152.75;;;19.71;74.40
24486;BME280;13449;49.374;8.584;2022-09-09T15:13:35;100144.69;;;19.69;75.87
24486;BME280;13449;49.374;8.584;2022-09-09T15:16:05;100160.97;;;19.66;75.23
24486;BME280;13449;49.374;8.584;2022-09-09T15:18:32;100164.47;;;19.61;75.44
24486;BME280;13449;49.374;8.584;2022-09-09T15:20:59;100160.81;;;19.56;77.54
24486;BME280;13449;49.374;8.584;2022-09-09T15:23:27;100182.28;;;19.49;79.34
24486;BME280;13449;49.374;8.584;2022-09-09T15:25:54;100197.00;;;19.38;75.02